NCAR-RAP Real-Time Weather Data

Output produced by METARs form (23 January 2018  15:39 UTC)
found at http://weather.rap.ucar.edu/surface/
 
RJFS 231500Z 30012KT 9999 FEW030 BKN045 02/M05 Q1022
RJFS 231400Z 29009KT 9999 FEW030 BKN050 02/M05 Q1021
RJFS 231200Z 29007KT 9999 FEW030 SCT045 BKN050 01/M05 Q1021
RJFS 231100Z 28006KT 9999 FEW030 SCT040 BKN045 02/M04 Q1021
RJFS 231000Z 29005KT 9999 FEW030 SCT035 BKN050 02/M02 Q1021
RJFS 230900Z 32007KT 9999 FEW030 BKN040 02/M02 Q1020
RJFS 230800Z 29013KT 9999 FEW030 SCT045 04/M04 Q1020
RJFS 230700Z 32011KT 9999 FEW030 SCT040 05/M03 Q1020
RJFS 230600Z 32014KT 9999 VCSH FEW020 SCT040 BKN050 05/M02 Q1019
RJFS 230500Z 32011KT 9999 FEW020 SCT040 BKN/// 06/M02 Q1019
RJFS 230400Z 31012KT 9999 FEW020 SCT030 07/M02 Q1020
RJFS 230300Z 32013KT 280V350 9999 VCSH FEW020 SCT030 BKN040 06/00 Q1020
RJFS 230200Z 31007KT 9999 -SHRA FEW020 SCT025 BKN030 05/02 Q1020
RJFS 230100Z 29010KT 9999 VCSH FEW020 SCT035 BKN045 06/01 Q1020
RJFS 230000Z 28008KT 9999 FEW035 06/01 Q1019
RJFS 222300Z 28008KT 9999 FEW035 05/00 Q1018
RJFS 222200Z 29008KT 9999 FEW030 05/01 Q1017
RJFS 222100Z 29009KT 9999 FEW040 05/02 Q1016
RJFS 221900Z 01002KT 6000 FEW035 BKN050 04/03 Q1015
RJFS 221800Z 18006KT 9999 FEW035 BKN060 07/05 Q1014
RJFS 221700Z 13005KT 070V150 9999 FEW010 BKN035 07/05 Q1015
RJFS 221600Z 14010KT 9999 FEW010 BKN050 07/05 Q1014
RJFS 221500Z 14008KT 9999 FEW010 BKN050 07/05 Q1014
RJFS 221400Z 04003KT 340V080 8000 FEW010 SCT060 02/02 Q1015
RJFS 221200Z 17002KT 9999 FEW040 03/03 Q1015
RJFS 221100Z 13003KT 9999 FEW040 04/03 Q1015
RJFS 221000Z 15002KT 9999 FEW050 05/04 Q1015
RJFS 220900Z 08003KT 9999 FEW030 05/03 Q1014
RJFS 220800Z VRB01KT 9999 FEW030 07/03 Q1014
RJFS 220700Z 05004KT 020V100 9999 FEW015 SCT030 08/04 Q1013
RJFS 220600Z 03005KT 9999 FEW010 SCT015 BKN050 07/04 Q1013
RJFS 220500Z 32003KT 280V360 9999 FEW010 BKN030 BKN050 06/05 Q1013
RJFS 220400Z 32006KT 9999 FEW005 BKN035 BKN060 06/04 Q1012
RJFS 220300Z 01010KT 9999 FEW010 BKN030 BKN060 05/03 Q1013
RJFS 220200Z 04010KT 9999 -SHRA FEW010 SCT035 BKN060 05/04 Q1013
RJFS 220100Z 05008KT 9000 -SHRA FEW010 SCT020 BKN045 05/04 Q1015
RJFS 220000Z 34002KT 6000 -SHRA FEW007 SCT015 BKN035 05/04 Q1015
RJFS 212300Z 36004KT 7000 -SHRA FEW020 SCT030 BKN050 05/04 Q1015
RJFS 212244Z 35005KT 7000 -SHRA FEW020 SCT030 BKN050 05/04 Q1015 RMK 1CU020 3CU030 7SC050 A2999
RJFS 212222Z 35005KT 310V010 6000 SHRA FEW015 SCT020 BKN025 05/04 Q1015 RMK 1CU015 3CU020 5CU025 A3000
RJFS 212200Z 33004KT 300V010 7000 -SHRA FEW025 BKN035 BKN050 05/04 Q1015
RJFS 212100Z 31004KT 8000 -SHRA FEW025 BKN035 05/04 Q1014
RJFS 211900Z 35005KT 300V030 9999 FEW050 BKN080 06/01 Q1014
RJFS 211800Z 02006KT CAVOK 06/01 Q1015
RJFS 211700Z 06005KT CAVOK 06/00 Q1016
RJFS 211600Z 02005KT CAVOK 06/01 Q1016
RJFS 211200Z 02005KT CAVOK 05/01 Q1019
RJFS 211100Z 03003KT CAVOK 07/00 Q1019
RJFS 211000Z 03005KT CAVOK 08/M00 Q1019
RJFS 210900Z 01007KT CAVOK 09/01 Q1019
RJFS 210800Z 04009KT CAVOK 11/00 Q1019
RJFS 210700Z 04010KT CAVOK 12/01 Q1018
RJFS 210600Z 02009KT 9999 FEW035 BKN/// 12/01 Q1019
RJFS 210500Z VRB04KT 9999 FEW035 SCT045 BKN/// 13/02 Q1019
RJFS 210400Z 23005KT 160V290 CAVOK 12/03 Q1020